Terminal Aerodrome Forecast
Issued by NWS Newport/Morehead City, NC

Home | Current Version | Previous Version | Text Only | Print | Product List | Glossary On
Versions: 1 2 3 4 5 6 7 8 9 10 11 12 13 14 15
219
FTUS42 KMHX 230542
TAFEWN
TAF
KEWN 230542Z 2306/2406 00000KT 5SM BR FEW050
      TEMPO 2308/2312 1SM BR
     FM231300 05007KT P6SM FEW250
     FM240000 VRB04KT P6SM SCT250=

USA.gov is the U.S. government's official web portal to all federal, state and local government web resources and services.